»·PEaware :: N902SQ KABQ-KPHX

N902SQ :: KABQ-KPHX

FLIGHT INFORMATION

Flight Status: Arrived
Operator: Privately registered:
United States
More flights under this callsign
Pilot: Gabor H. (24209)
Aircraft: SOCATA TBM-900
(TBM9)
More flights by this aircraft type
Origin: KABQ Albuquerque Intl Sunport
United States
Destination: KPHX Phoenix Sky Harbor Intl
United States
More flights between these airports :: More routes between these airports
Route: ABQ V12 ZUN JESSE3
File this flight plan on PilotEdge
Remarks:
Altitude:
(Current/Filed)
26,000ft
Speed:
(Current/Filed)
300kts
Departed: 26-Nov-23 11:04 AM
Arrived: 26-Nov-23 12:23 PM
Distance/Time
Traveled:
285nm/1:19
Distance/Time
To Go:
Arrived

Flight Plot

Page will automatically refresh every two minutes.

Flight plan parsing failed; only flown route is shown


Map Options




Map Legend


Flown Route
Filed Route
Departure Airport
Arrival Airport
Navaid (VOR, NDB)
Fix

Horizontal Profiles

Position Reports

Time Latitude Longitude Heading Altitude Ground
Speed
26-Nov-23 10:44 35.038988 -106.619113 269 5318ft 0kts
26-Nov-23 10:45 35.038988 -106.619113 269 5318ft 0kts
26-Nov-23 10:46 35.038988 -106.619113 269 5318ft 0kts
26-Nov-23 10:47 35.038988 -106.619113 269 5318ft 0kts
26-Nov-23 10:48 35.038988 -106.619113 269 5318ft 0kts
26-Nov-23 10:49 35.038988 -106.619113 269 5318ft 0kts
26-Nov-23 10:50 35.038988 -106.619113 269 5318ft 0kts
26-Nov-23 10:51 35.038988 -106.619113 269 5318ft 0kts
26-Nov-23 10:52 35.038988 -106.619113 269 5318ft 0kts
26-Nov-23 10:53 35.038988 -106.619113 269 5318ft 0kts
26-Nov-23 10:54 35.039810 -106.618081 98 5318ft 10kts
26-Nov-23 10:55 35.038772 -106.613972 16 5318ft 15kts
26-Nov-23 10:56 35.042447 -106.611369 87 5318ft 23kts
26-Nov-23 10:57 35.042596 -106.603394 90 5321ft 24kts
26-Nov-23 10:58 35.042597 -106.594803 92 5332ft 27kts
26-Nov-23 10:59 35.042637 -106.586687 90 5341ft 21kts
26-Nov-23 11:00 35.042614 -106.579746 88 5354ft 21kts
26-Nov-23 11:01 35.043077 -106.575833 23 5361ft 0kts
26-Nov-23 11:02 35.044049 -106.576371 272 5361ft 16kts
26-Nov-23 11:03 35.043103 -106.609479 268 6202ft 142kts
26-Nov-23 11:04 35.040866 -106.651361 268 8232ft 143kts
26-Nov-23 11:05 35.040041 -106.699538 272 10375ft 144kts
26-Nov-23 11:06 35.041534 -106.747967 272 12621ft 143kts
26-Nov-23 11:07 35.043127 -106.795889 272 14735ft 142kts
26-Nov-23 11:08 35.042878 -106.843403 269 17078ft 139kts
26-Nov-23 11:09 35.041840 -106.889850 268 19138ft 138kts
26-Nov-23 11:10 35.040739 -106.935997 268 21573ft 134kts
26-Nov-23 11:11 35.039635 -106.980504 267 23827ft 133kts
26-Nov-23 11:12 35.038521 -107.024470 267 26040ft 130kts
26-Nov-23 11:13 35.037064 -107.080521 267 26348ft 200kts
26-Nov-23 11:14 35.035100 -107.154296 267 26319ft 231kts
26-Nov-23 11:15 35.032939 -107.234897 267 26311ft 241kts
26-Nov-23 11:16 35.030685 -107.317215 267 26308ft 244kts
26-Nov-23 11:17 35.028348 -107.400488 267 26306ft 245kts
26-Nov-23 11:18 35.025958 -107.483510 267 26305ft 246kts
26-Nov-23 11:19 35.023479 -107.567607 267 26305ft 248kts
26-Nov-23 11:20 35.020935 -107.651858 267 26304ft 250kts
26-Nov-23 11:21 35.018306 -107.737056 267 26315ft 251kts
26-Nov-23 11:22 35.015615 -107.822276 267 26313ft 251kts
26-Nov-23 11:23 35.012870 -107.907258 267 26312ft 251kts
26-Nov-23 11:24 35.010064 -107.992321 267 26311ft 250kts
26-Nov-23 11:25 35.007188 -108.077683 267 26310ft 252kts
26-Nov-23 11:26 35.004251 -108.163099 267 26309ft 253kts
26-Nov-23 11:27 35.001247 -108.248664 267 26308ft 253kts
26-Nov-23 11:28 34.998179 -108.334350 267 26300ft 253kts
26-Nov-23 11:29 34.995040 -108.420320 267 26292ft 253kts
26-Nov-23 11:30 34.991859 -108.505983 267 26286ft 253kts
26-Nov-23 11:31 34.988596 -108.591800 267 26282ft 253kts
26-Nov-23 11:32 34.985271 -108.677774 266 26290ft 253kts
26-Nov-23 11:33 34.981892 -108.763755 266 26287ft 255kts
26-Nov-23 11:34 34.978416 -108.850521 266 26285ft 256kts
26-Nov-23 11:35 34.974887 -108.937085 266 26284ft 256kts
26-Nov-23 11:36 34.971298 -109.023623 266 26283ft 255kts
26-Nov-23 11:37 34.967647 -109.110138 266 26282ft 256kts
26-Nov-23 11:38 34.957148 -109.195928 257 26282ft 257kts
26-Nov-23 11:39 34.939849 -109.280318 257 26276ft 257kts
26-Nov-23 11:40 34.922384 -109.364786 257 26267ft 257kts
26-Nov-23 11:41 34.904854 -109.449224 257 26256ft 257kts
26-Nov-23 11:42 34.887356 -109.533198 257 26267ft 256kts
26-Nov-23 11:43 34.869736 -109.617439 257 26281ft 256kts
26-Nov-23 11:44 34.852132 -109.701297 257 26306ft 256kts
26-Nov-23 11:45 34.834361 -109.785641 257 26277ft 258kts
26-Nov-23 11:46 34.816511 -109.870040 257 26276ft 257kts
26-Nov-23 11:47 34.798597 -109.954443 257 26275ft 257kts
26-Nov-23 11:48 34.780719 -110.038337 257 26274ft 257kts
26-Nov-23 11:49 34.762631 -110.122938 257 26273ft 258kts
26-Nov-23 11:50 34.744502 -110.207380 257 26273ft 258kts
26-Nov-23 11:51 34.726332 -110.291669 257 26272ft 257kts
26-Nov-23 11:52 34.708048 -110.376188 257 26270ft 258kts
26-Nov-23 11:53 34.689800 -110.460224 257 26275ft 257kts
26-Nov-23 11:54 34.671476 -110.544316 257 26283ft 257kts
26-Nov-23 11:55 34.653055 -110.628550 257 26292ft 257kts
26-Nov-23 11:56 34.634636 -110.712473 256 26305ft 258kts
26-Nov-23 11:57 34.615999 -110.797094 256 26248ft 262kts
26-Nov-23 11:58 34.595973 -110.887639 256 24945ft 287kts
26-Nov-23 11:59 34.546414 -110.956549 199 23584ft 315kts
26-Nov-23 12:00 34.461662 -110.981419 200 22218ft 312kts
26-Nov-23 12:01 34.377764 -111.007220 200 20847ft 310kts
26-Nov-23 12:02 34.294234 -111.032897 199 19479ft 309kts
26-Nov-23 12:03 34.211324 -111.058340 198 18122ft 308kts
26-Nov-23 12:04 34.129635 -111.086398 217 16712ft 300kts
26-Nov-23 12:05 34.073502 -111.157543 228 15446ft 293kts
26-Nov-23 12:06 34.017924 -111.228862 228 14163ft 291kts
26-Nov-23 12:07 33.962624 -111.299647 227 12885ft 287kts
26-Nov-23 12:08 33.909176 -111.367890 226 11649ft 277kts
26-Nov-23 12:09 33.855764 -111.435944 226 11033ft 272kts
26-Nov-23 12:10 33.809808 -111.505108 234 11035ft 262kts
26-Nov-23 12:11 33.767918 -111.577108 234 10999ft 263kts
26-Nov-23 12:12 33.726057 -111.649044 234 11002ft 263kts
26-Nov-23 12:13 33.683998 -111.721272 233 10894ft 265kts
26-Nov-23 12:14 33.643158 -111.791619 233 9789ft 246kts
26-Nov-23 12:15 33.604814 -111.857489 233 8785ft 238kts
26-Nov-23 12:16 33.566895 -111.922580 234 7709ft 236kts
26-Nov-23 12:17 33.533871 -111.987206 240 6137ft 219kts
26-Nov-23 12:18 33.505071 -112.046567 237 4382ft 195kts
26-Nov-23 12:19 33.463152 -112.079440 191 2363ft 181kts
26-Nov-23 12:20 33.428406 -112.072856 90 1902ft 124kts
26-Nov-23 12:21 33.428657 -112.040656 84 1331ft 83kts
26-Nov-23 12:22 33.428835 -112.017347 91 1115ft 27kts
26-Nov-23 12:23 33.427753 -112.020469 269 1112ft 15kts
26-Nov-23 12:24 33.425377 -112.020455 274 1112ft 6kts
26-Nov-23 12:25 33.425380 -112.020521 271 1112ft 0kts
26-Nov-23 12:26 33.425380 -112.020521 271 1112ft 0kts
26-Nov-23 12:27 33.425380 -112.020521 271 1112ft 0kts
26-Nov-23 12:28 33.425380 -112.020521 271 1112ft 0kts
26-Nov-23 12:29 33.425380 -112.020521 271 1112ft 0kts
26-Nov-23 12:30 33.425380 -112.020521 271 1112ft 0kts
26-Nov-23 12:31 33.425380 -112.020521 271 1112ft 0kts

Navigation Log

Ident Type
Flight plan parsing failed, navigation log unavailable